Terminal Aerodrome Forecast
Issued by NWS

Home | Current Version | Previous Version | Text Only | Print | Product List | Glossary On
Versions: 1 2 3 4 5 6 7 8 9 10 11 12 13 14 15
000
FTUS46 KPDT 020500
TAFDLS
TAF
KDLS 020520Z 0206/0306 29007KT P6SM SKC
     FM021500 30012G20KT P6SM SCT200
     FM022000 31020G30KT P6SM SCT060 SCT200
     FM030300 30015G25KT P6SM SCT060=

USA.gov is the U.S. government's official web portal to all federal, state and local government web resources and services.